Terminal Aerodrome Forecast
Issued by NWS

Home | Current Version | Previous Version | Text Only | Print | Product List | Glossary Off
Versions: 1 2 3 4 5 6 7 8 9 10 11 12 13 14

000
FTUS43 KMPX 131100 RRA
TAFRWF
TAF
KRWF 131141Z 1312/1412 34015G22KT P6SM SCT007 OVC012
     FM131800 35019G28KT P6SM BKN035
     FM140000 35017G25KT P6SM SCT050 BKN100
     FM140600 33015KT P6SM SCT050 BKN250=

USA.gov is the U.S. government's official web portal to all federal, state and local government web resources and services.